Time;durP1;ratioP1;P1;durP2;ratioP2;P2;SDS_P1;SDS_P2;PMS_P1;PMS_P2;Temp;Humidity;BMP_temperature;BMP_pressure;BME280_temperature;BME280_humidity;BME280_pressure;Samples;Min_cycle;Max_cycle;Signal;HPM_P1;HPM_P2
2021/11/22 00:04:46;;;;;;;24.63;9.90;;;;;;;5.93;100.00;98202.47;10454566;28;20561;-66
2021/11/22 00:09:49;;;;;;;23.60;9.35;;;;;;;5.92;100.00;98206.13;10465709;28;20129;-65
2021/11/22 00:14:54;;;;;;;21.83;9.73;;;;;;;5.82;100.00;98206.09;10452963;28;20508;-63
2021/11/22 00:19:58;;;;;;;18.42;9.30;;;;;;;5.81;100.00;98210.63;10454242;28;20141;-65
2021/11/22 00:25:01;;;;;;;22.08;9.90;;;;;;;5.75;100.00;98213.81;10472817;28;20473;-62
2021/11/22 00:30:06;;;;;;;20.95;9.07;;;;;;;5.80;100.00;98206.25;10465933;28;20465;-64
2021/11/22 00:35:33;;;;;;;24.70;9.70;;;;;;;5.81;100.00;98205.28;10448367;28;20140;-63
2021/11/22 00:40:38;;;;;;;21.08;9.02;;;;;;;5.70;100.00;98216.06;10457891;28;20127;-65
2021/11/22 00:45:42;;;;;;;28.27;9.27;;;;;;;5.82;100.00;98214.13;10462743;28;20140;-63
2021/11/22 00:50:45;;;;;;;22.80;9.63;;;;;;;5.77;100.00;98227.03;10472684;28;20048;-64
2021/11/22 00:55:48;;;;;;;25.60;9.80;;;;;;;5.70;100.00;98232.09;10472082;28;20044;-60
2021/11/22 01:00:54;;;;;;;22.10;9.40;;;;;;;5.71;100.00;98236.44;10478712;28;20040;-63
2021/11/22 01:05:58;;;;;;;18.67;9.73;;;;;;;5.60;100.00;98239.22;10445327;28;20052;-63
2021/11/22 01:11:01;;;;;;;24.67;10.63;;;;;;;5.50;100.00;98240.03;10443707;28;20132;-63
2021/11/22 01:16:07;;;;;;;21.17;10.68;;;;;;;5.60;100.00;98252.56;10468686;28;20159;-64
2021/11/22 01:21:10;;;;;;;27.23;10.95;;;;;;;5.47;100.00;98252.81;10474499;28;20511;-63
2021/11/22 01:26:14;;;;;;;22.15;10.35;;;;;;;5.45;100.00;98250.28;10474080;28;20117;-63
2021/11/22 01:31:35;;;;;;;26.58;10.75;;;;;;;5.45;100.00;98262.78;10493546;28;20848;-64
2021/11/22 01:36:45;;;;;;;28.95;10.80;;;;;;;5.35;100.00;98260.91;10491923;28;20053;-65
2021/11/22 01:41:49;;;;;;;24.40;10.60;;;;;;;5.37;100.00;98266.09;10477715;28;20041;-66
2021/11/22 01:47:16;;;;;;;30.40;11.70;;;;;;;5.34;100.00;98279.75;10469192;28;20036;-64
2021/11/22 01:52:31;;;;;;;25.10;12.88;;;;;;;5.28;100.00;98280.25;10480022;28;20039;-63
2021/11/22 01:57:34;;;;;;;27.38;12.88;;;;;;;5.35;100.00;98274.25;10482400;28;20139;-62
2021/11/22 02:02:39;;;;;;;29.70;12.50;;;;;;;5.38;100.00;98292.72;10468347;28;20062;-64
2021/11/22 02:07:43;;;;;;;31.15;13.75;;;;;;;5.36;100.00;98294.66;10463345;28;20106;-61
2021/11/22 02:12:47;;;;;;;25.75;14.52;;;;;;;5.26;100.00;98299.09;10470520;28;20059;-62
2021/11/22 02:17:53;;;;;;;27.67;16.40;;;;;;;5.19;100.00;98314.78;10475724;28;20061;-64
2021/11/22 02:22:59;;;;;;;37.75;17.15;;;;;;;5.24;100.00;98315.22;10480215;28;20048;-63
2021/11/22 02:28:04;;;;;;;33.58;16.10;;;;;;;5.23;100.00;98324.22;10477430;28;20061;-65
2021/11/22 02:33:15;;;;;;;29.55;15.77;;;;;;;5.24;100.00;98323.25;10477387;28;20496;-61
2021/11/22 02:38:22;;;;;;;33.78;18.08;;;;;;;5.12;100.00;98326.94;10526402;28;20040;-63
2021/11/22 02:43:26;;;;;;;35.42;18.40;;;;;;;5.09;100.00;98337.91;10532813;28;20028;-65
2021/11/22 02:48:29;;;;;;;33.13;17.95;;;;;;;5.05;100.00;98337.31;10513574;28;20029;-61
2021/11/22 02:53:34;;;;;;;28.35;16.30;;;;;;;5.06;100.00;98335.50;10485481;28;20045;-66
2021/11/22 02:58:39;;;;;;;28.40;15.27;;;;;;;5.03;100.00;98341.06;10453313;28;20061;-65
2021/11/22 03:03:42;;;;;;;27.40;14.10;;;;;;;5.02;100.00;98350.06;10451054;28;20064;-65
2021/11/22 03:08:47;;;;;;;25.08;13.93;;;;;;;4.87;100.00;98358.41;10454170;28;20156;-65
2021/11/22 03:13:51;;;;;;;30.90;15.98;;;;;;;4.83;100.00;98364.09;10450069;28;20121;-64
2021/11/22 03:18:54;;;;;;;30.30;15.30;;;;;;;4.89;100.00;98372.44;10457105;28;20136;-64
2021/11/22 03:23:59;;;;;;;33.55;17.25;;;;;;;4.78;100.00;98376.00;10453571;28;20095;-63
2021/11/22 03:29:02;;;;;;;34.70;17.80;;;;;;;4.81;100.00;98380.22;10457435;28;20589;-63
2021/11/22 03:34:07;;;;;;;31.60;17.55;;;;;;;4.82;100.00;98386.44;10444452;28;20127;-62
2021/11/22 03:39:18;;;;;;;26.30;17.08;;;;;;;4.87;100.00;98390.44;10462809;28;20123;-61
2021/11/22 03:44:21;;;;;;;31.42;16.92;;;;;;;4.94;100.00;98399.63;10459234;28;20120;-65
2021/11/22 03:49:25;;;;;;;30.92;19.52;;;;;;;4.93;100.00;98392.56;10470342;28;20076;-62
2021/11/22 03:54:30;;;;;;;33.90;19.88;;;;;;;4.94;100.00;98396.94;10474953;28;20668;-62
2021/11/22 03:59:34;;;;;;;36.22;23.70;;;;;;;4.66;100.00;98403.69;10476268;28;20536;-62
2021/11/22 04:04:37;;;;;;;37.53;23.17;;;;;;;4.55;100.00;98422.38;10472276;28;20102;-64
2021/11/22 04:09:42;;;;;;;43.03;28.00;;;;;;;4.44;100.00;98426.75;10469280;28;20135;-64
2021/11/22 04:14:45;;;;;;;43.90;28.85;;;;;;;4.38;100.00;98440.56;10469223;28;20048;-66
2021/11/22 04:19:49;;;;;;;43.25;29.25;;;;;;;4.35;100.00;98442.63;10465543;28;20112;-61
2021/11/22 04:24:53;;;;;;;48.33;31.60;;;;;;;4.27;100.00;98449.44;10464570;28;20037;-64
2021/11/22 04:29:57;;;;;;;44.30;29.65;;;;;;;4.27;100.00;98468.09;10446590;28;20094;-62
2021/11/22 04:35:03;;;;;;;42.45;29.48;;;;;;;4.26;100.00;98478.88;10466971;28;20037;-63
2021/11/22 04:40:11;;;;;;;46.20;28.88;;;;;;;4.22;100.00;98480.09;10460738;28;20124;-61
2021/11/22 04:45:16;;;;;;;49.08;29.20;;;;;;;4.15;100.00;98493.91;10463207;28;20041;-64
2021/11/22 04:50:20;;;;;;;45.97;30.15;;;;;;;4.16;100.00;98502.75;10459714;28;20110;-63
2021/11/22 04:55:27;;;;;;;48.60;30.83;;;;;;;4.12;100.00;98504.78;10459658;28;20154;-64
2021/11/22 05:00:37;;;;;;;37.58;26.75;;;;;;;4.13;100.00;98505.66;10440215;28;20383;-62
2021/11/22 05:05:41;;;;;;;31.48;20.60;;;;;;;4.13;100.00;98511.00;10472318;28;20044;-64
2021/11/22 05:10:46;;;;;;;25.98;17.80;;;;;;;4.12;100.00;98527.94;10460660;28;20131;-64
2021/11/22 05:15:49;;;;;;;36.15;17.65;;;;;;;4.16;100.00;98526.75;10454192;28;20481;-63
2021/11/22 05:20:52;;;;;;;21.70;14.25;;;;;;;4.14;100.00;98526.03;10457273;28;20366;-65
2021/11/22 05:25:57;;;;;;;16.27;10.77;;;;;;;4.08;100.00;98521.16;10473282;28;20404;-65
2021/11/22 05:31:00;;;;;;;15.68;11.18;;;;;;;4.10;100.00;98527.22;10463043;28;20135;-64
2021/11/22 05:36:03;;;;;;;20.25;12.65;;;;;;;4.10;100.00;98535.22;10478292;28;20037;-65
2021/11/22 05:41:26;;;;;;;19.17;13.40;;;;;;;4.08;100.00;98554.00;10471593;28;20116;-66
2021/11/22 05:46:42;;;;;;;26.02;16.77;;;;;;;4.07;100.00;98556.78;10462717;28;20053;-64
2021/11/22 05:51:46;;;;;;;25.00;17.90;;;;;;;4.07;100.00;98552.31;10449960;28;20072;-61
2021/11/22 05:56:50;;;;;;;33.28;21.23;;;;;;;4.07;100.00;98570.97;10475328;28;20068;-64
2021/11/22 06:01:53;;;;;;;21.90;14.35;;;;;;;4.08;100.00;98585.13;10469072;28;20566;-64
2021/11/22 06:06:57;;;;;;;24.48;14.40;;;;;;;4.03;100.00;98592.66;10448017;28;20501;-61
2021/11/22 06:12:01;;;;;;;19.15;12.00;;;;;;;4.04;100.00;98603.19;10450126;28;20485;-66
2021/11/22 06:17:05;;;;;;;15.25;10.63;;;;;;;3.98;100.00;98607.16;10469431;28;20048;-66
2021/11/22 06:22:08;;;;;;;22.20;13.00;;;;;;;3.98;100.00;98620.50;10465823;28;20079;-64
2021/11/22 06:27:14;;;;;;;19.20;11.70;;;;;;;3.92;100.00;98636.94;10459934;28;20123;-65
2021/11/22 06:32:17;;;;;;;13.57;9.65;;;;;;;3.94;100.00;98629.66;10452053;28;20053;-65
2021/11/22 06:37:21;;;;;;;14.48;10.18;;;;;;;3.95;100.00;98638.53;10458550;28;20138;-66
2021/11/22 06:42:26;;;;;;;14.13;10.40;;;;;;;3.89;100.00;98650.50;10459901;28;20099;-62
2021/11/22 06:47:29;;;;;;;14.70;11.70;;;;;;;3.89;100.00;98661.16;10455542;28;20136;-65
2021/11/22 06:52:32;;;;;;;16.52;11.90;;;;;;;3.88;100.00;98670.13;10465368;28;20092;-62
2021/11/22 06:57:37;;;;;;;16.27;13.18;;;;;;;3.92;100.00;98676.06;10455376;28;20052;-64
2021/11/22 07:02:40;;;;;;;17.35;11.00;;;;;;;3.86;100.00;98690.69;10451963;28;20091;-61
2021/11/22 07:07:44;;;;;;;17.23;12.57;;;;;;;3.87;100.00;98695.06;10453053;28;20494;-65
2021/11/22 07:12:48;;;;;;;14.77;11.90;;;;;;;3.83;100.00;98691.78;10450444;28;20124;-64
2021/11/22 07:17:53;;;;;;;17.02;13.57;;;;;;;3.85;100.00;98710.31;10433627;28;20044;-65
2021/11/22 07:22:56;;;;;;;28.77;16.33;;;;;;;3.85;100.00;98728.97;10455304;28;20045;-62
2021/11/22 07:28:00;;;;;;;23.13;16.70;;;;;;;3.82;100.00;98738.06;10451238;28;20052;-64
2021/11/22 07:33:03;;;;;;;16.88;13.50;;;;;;;3.80;100.00;98731.13;10458723;28;20119;-64
2021/11/22 07:38:07;;;;;;;21.08;13.80;;;;;;;3.75;100.00;98744.78;10461181;28;20102;-63
2021/11/22 07:43:13;;;;;;;17.92;14.27;;;;;;;3.73;100.00;98757.38;10472674;28;20063;-63
2021/11/22 07:48:17;;;;;;;15.85;13.07;;;;;;;3.72;100.00;98760.13;10464394;28;20055;-62
2021/11/22 07:53:21;;;;;;;28.88;19.85;;;;;;;3.75;100.00;98762.59;10473333;28;20047;-65
2021/11/22 07:58:25;;;;;;;19.88;16.23;;;;;;;3.70;100.00;98762.91;10466825;28;20063;-64
2021/11/22 08:03:28;;;;;;;17.13;13.05;;;;;;;3.74;100.00;98771.53;10471505;28;20071;-65
2021/11/22 08:08:36;;;;;;;13.75;10.43;;;;;;;3.73;100.00;98781.34;10476567;28;20083;-66
2021/11/22 08:13:42;;;;;;;14.93;10.77;;;;;;;3.72;100.00;98784.09;10473120;28;20581;-66
2021/11/22 08:18:45;;;;;;;19.48;15.85;;;;;;;3.77;100.00;98805.97;10470830;28;20052;-65
2021/11/22 08:23:49;;;;;;;17.70;13.15;;;;;;;3.75;100.00;98810.53;10452576;28;20041;-65
2021/11/22 08:28:53;;;;;;;15.52;13.60;;;;;;;3.74;100.00;98830.16;10466618;28;20044;-65
2021/11/22 08:33:56;;;;;;;19.48;16.02;;;;;;;3.77;100.00;98830.78;10460728;28;20048;-65
2021/11/22 08:38:59;;;;;;;19.98;15.55;;;;;;;3.77;100.00;98843.28;10462499;28;20079;-66
2021/11/22 08:44:04;;;;;;;15.75;12.82;;;;;;;3.79;100.00;98852.03;10469112;28;20400;-66
2021/11/22 08:49:08;;;;;;;11.70;8.93;;;;;;;3.81;100.00;98858.09;10463141;28;20143;-65
2021/11/22 08:54:11;;;;;;;12.57;10.48;;;;;;;3.86;100.00;98866.63;10450362;28;20041;-66
2021/11/22 08:59:17;;;;;;;13.55;10.48;;;;;;;3.89;100.00;98873.53;10469127;28;20048;-66
2021/11/22 09:04:23;;;;;;;13.77;12.32;;;;;;;3.96;100.00;98877.50;10460492;28;20047;-65
2021/11/22 09:09:32;;;;;;;15.40;12.20;;;;;;;3.98;100.00;98889.75;10453214;28;20056;-65
2021/11/22 09:14:36;;;;;;;16.17;12.65;;;;;;;4.00;100.00;98902.97;10463701;28;20047;-65
2021/11/22 09:19:39;;;;;;;14.07;10.57;;;;;;;4.04;100.00;98904.47;10459501;28;20060;-62
2021/11/22 09:24:44;;;;;;;13.77;9.82;;;;;;;4.10;100.00;98917.38;10465216;28;20135;-62
2021/11/22 09:29:48;;;;;;;15.13;9.88;;;;;;;4.11;100.00;98919.09;10439639;28;20048;-64
2021/11/22 09:34:51;;;;;;;10.77;7.72;;;;;;;4.07;100.00;98924.72;10481314;28;20044;-64
2021/11/22 09:39:56;;;;;;;9.27;6.93;;;;;;;4.06;100.00;98920.38;10457401;28;20556;-65
2021/11/22 09:45:01;;;;;;;11.25;7.18;;;;;;;4.07;100.00;98924.72;10482117;28;20485;-65
2021/11/22 09:50:06;;;;;;;10.45;7.78;;;;;;;4.07;100.00;98935.38;10473183;28;20394;-65
2021/11/22 09:55:09;;;;;;;9.40;7.60;;;;;;;4.14;100.00;98926.00;10476139;28;20536;-65
2021/11/22 10:00:16;;;;;;;5.60;4.78;;;;;;;4.13;100.00;98929.63;10472415;28;20041;-65
2021/11/22 10:05:26;;;;;;;5.60;4.47;;;;;;;4.13;100.00;98933.13;10479324;28;20071;-65
2021/11/22 10:10:39;;;;;;;8.10;5.10;;;;;;;4.14;100.00;98931.34;10445628;28;20044;-65
2021/11/22 10:15:43;;;;;;;7.53;4.97;;;;;;;4.13;100.00;98937.63;10455356;28;20148;-65
2021/11/22 10:20:47;;;;;;;5.85;5.00;;;;;;;4.14;100.00;98947.34;10444896;28;20596;-64
2021/11/22 10:25:50;;;;;;;6.50;4.90;;;;;;;4.06;100.00;98963.88;10444426;28;20136;-65
2021/11/22 10:30:56;;;;;;;6.95;5.15;;;;;;;3.92;100.00;98956.84;10468317;28;20115;-65
2021/11/22 10:36:01;;;;;;;7.68;4.40;;;;;;;3.81;100.00;98954.06;10467494;28;20108;-65
2021/11/22 10:41:06;;;;;;;7.38;4.40;;;;;;;3.78;100.00;98967.59;10461177;28;20425;-64
2021/11/22 10:46:12;;;;;;;7.18;5.50;;;;;;;3.73;100.00;98972.34;10464002;28;20059;-65
2021/11/22 10:51:20;;;;;;;7.18;5.05;;;;;;;3.76;100.00;98967.69;10441037;28;20040;-64
2021/11/22 10:56:27;;;;;;;7.07;5.00;;;;;;;3.81;100.00;98978.03;10458865;28;20080;-63
2021/11/22 11:01:37;;;;;;;6.28;5.03;;;;;;;3.83;100.00;98974.31;10457194;28;20051;-65
2021/11/22 11:06:48;;;;;;;7.35;4.80;;;;;;;3.87;100.00;98977.59;10472953;28;20057;-66
2021/11/22 11:11:56;;;;;;;7.32;4.10;;;;;;;3.83;100.00;98986.75;10444762;28;20136;-64
2021/11/22 11:17:12;;;;;;;5.78;3.80;;;;;;;3.85;100.00;98987.53;10470029;28;20055;-62
2021/11/22 11:22:17;;;;;;;6.30;4.30;;;;;;;3.85;100.00;98995.50;10446886;28;20049;-64
2021/11/22 11:27:20;;;;;;;5.65;4.30;;;;;;;3.88;100.00;98995.31;10477703;28;20044;-61
2021/11/22 11:32:26;;;;;;;5.43;4.82;;;;;;;3.92;100.00;99002.16;10465658;28;20045;-62
2021/11/22 11:37:57;;;;;;;5.15;4.22;;;;;;;3.91;100.00;99005.78;10466638;28;20076;-64
2021/11/22 11:43:19;;;;;;;7.35;4.00;;;;;;;3.91;100.00;99004.91;10482072;28;20131;-63
2021/11/22 11:48:48;;;;;;;5.88;3.60;;;;;;;4.02;100.00;99005.03;10489233;28;20132;-64
2021/11/22 11:54:14;;;;;;;4.78;3.65;;;;;;;4.07;100.00;99002.03;10475198;28;20108;-64
2021/11/22 11:59:22;;;;;;;4.30;2.83;;;;;;;4.11;100.00;99011.53;10469350;28;20049;-61
2021/11/22 12:04:28;;;;;;;6.03;2.33;;;;;;;4.16;100.00;98998.75;10475925;28;20067;-63
2021/11/22 12:09:36;;;;;;;3.88;2.40;;;;;;;4.29;100.00;99004.09;10521678;28;20041;-64
2021/11/22 12:14:57;;;;;;;3.17;2.40;;;;;;;4.27;100.00;99009.53;10537098;28;20039;-67
2021/11/22 12:20:57;;;;;;;3.78;2.33;;;;;;;4.18;100.00;99015.47;10520221;28;20110;-63
2021/11/22 12:26:03;;;;;;;7.32;2.15;;;;;;;4.15;100.00;99008.56;10479132;28;20097;-64
2021/11/22 12:31:09;;;;;;;2.00;1.80;;;;;;;4.07;100.00;99012.72;10451773;28;20053;-63
2021/11/22 12:36:48;;;;;;;2.78;1.80;;;;;;;4.26;100.00;99006.97;10464425;28;20180;-63
2021/11/22 12:42:19;;;;;;;1.30;1.17;;;;;;;4.24;100.00;99017.75;10408944;28;20048;-63
2021/11/22 12:47:27;;;;;;;2.97;1.23;;;;;;;4.23;100.00;99016.03;10462270;28;20064;-63
2021/11/22 12:52:32;;;;;;;2.00;1.08;;;;;;;4.22;100.00;99029.50;10461255;28;20509;-65
2021/11/22 12:57:38;;;;;;;1.10;1.00;;;;;;;4.34;100.00;99033.09;10463424;28;20521;-63
2021/11/22 13:02:54;;;;;;;2.55;1.00;;;;;;;4.32;100.00;99028.72;10443580;28;20494;-64
2021/11/22 13:08:40;;;;;;;1.58;0.80;;;;;;;4.19;100.00;99033.19;10459206;28;20044;-62
2021/11/22 13:13:54;;;;;;;2.08;0.70;;;;;;;4.23;100.00;99034.72;10469706;28;20424;-61
2021/11/22 13:18:59;;;;;;;2.40;1.10;;;;;;;4.39;100.00;99031.81;10464230;28;20060;-62
2021/11/22 13:24:05;;;;;;;1.30;0.63;;;;;;;4.55;100.00;99042.28;10458890;28;20055;-60
2021/11/22 13:29:13;;;;;;;2.03;0.77;;;;;;;4.54;100.00;99040.56;10458537;28;20420;-59
2021/11/22 13:34:19;;;;;;;1.63;0.70;;;;;;;4.24;100.00;99051.53;10467531;28;20124;-65
2021/11/22 13:39:32;;;;;;;1.20;0.60;;;;;;;4.05;100.00;99052.81;10459411;28;20049;-62
2021/11/22 13:44:39;;;;;;;3.35;0.68;;;;;;;4.15;100.00;99061.06;10460614;28;20068;-59
2021/11/22 13:49:43;;;;;;;1.63;0.60;;;;;;;4.39;100.00;99063.00;10447315;28;20048;-60
2021/11/22 13:54:56;;;;;;;1.63;0.73;;;;;;;4.57;100.00;99064.38;10462706;28;20102;-57
2021/11/22 14:00:00;;;;;;;2.92;0.80;;;;;;;4.64;100.00;99075.47;10451986;28;20147;-59
2021/11/22 14:05:04;;;;;;;1.30;0.77;;;;;;;4.35;100.00;99088.16;10469848;28;20142;-58
2021/11/22 14:10:08;;;;;;;1.45;0.98;;;;;;;4.36;100.00;99090.72;10467399;28;20045;-61
2021/11/22 14:15:21;;;;;;;1.38;1.10;;;;;;;4.24;100.00;99092.44;10453729;28;20511;-54
2021/11/22 14:20:25;;;;;;;3.05;1.30;;;;;;;4.27;100.00;99108.22;10446150;28;20098;-60
2021/11/22 14:25:30;;;;;;;2.00;1.38;;;;;;;4.46;100.00;99109.63;10448330;28;20401;-62
2021/11/22 14:30:35;;;;;;;1.95;1.40;;;;;;;4.58;100.00;99111.44;10470352;28;20054;-59
2021/11/22 14:35:42;;;;;;;2.15;1.15;;;;;;;4.51;100.00;99110.19;10465339;28;20041;-61
2021/11/22 14:40:47;;;;;;;5.47;1.40;;;;;;;4.61;100.00;99110.38;10465399;28;20045;-57
2021/11/22 14:45:54;;;;;;;2.25;1.50;;;;;;;4.48;100.00;99108.56;10462240;28;20406;-64
2021/11/22 14:51:05;;;;;;;1.40;1.17;;;;;;;4.30;100.00;99109.81;10461370;28;20057;-60
2021/11/22 14:56:14;;;;;;;3.65;1.13;;;;;;;4.12;100.00;99114.59;10461147;28;20128;-61
2021/11/22 15:01:25;;;;;;;1.88;1.10;;;;;;;3.99;100.00;99130.56;10460018;28;20079;-63
2021/11/22 15:06:31;;;;;;;1.90;1.10;;;;;;;3.94;100.00;99127.34;10439422;28;20057;-60
2021/11/22 15:11:41;;;;;;;3.05;1.13;;;;;;;3.78;100.00;99124.84;10458727;28;20497;-58
2021/11/22 15:16:51;;;;;;;4.97;1.10;;;;;;;3.59;100.00;99125.19;10457776;28;20059;-58
2021/11/22 15:21:56;;;;;;;2.50;1.00;;;;;;;3.55;100.00;99127.19;10457369;28;20052;-61
2021/11/22 15:27:00;;;;;;;2.17;1.13;;;;;;;3.42;100.00;99132.44;10451756;28;20128;-64
2021/11/22 15:32:07;;;;;;;2.15;1.17;;;;;;;3.28;100.00;99149.31;10441966;28;20055;-63
2021/11/22 15:37:12;;;;;;;3.47;1.20;;;;;;;3.10;100.00;99159.31;10468445;28;20056;-61
2021/11/22 15:42:18;;;;;;;2.60;1.15;;;;;;;2.98;100.00;99166.25;10439467;28;20053;-64
2021/11/22 15:47:23;;;;;;;2.65;1.02;;;;;;;2.83;100.00;99178.69;10472986;28;20044;-63
2021/11/22 15:52:26;;;;;;;2.55;1.10;;;;;;;2.72;100.00;99181.13;10469006;28;20051;-65
2021/11/22 15:57:29;;;;;;;1.40;1.10;;;;;;;2.67;100.00;99189.41;10476381;28;20143;-64
2021/11/22 16:02:34;;;;;;;4.00;1.58;;;;;;;2.57;100.00;99190.91;10476586;28;20053;-62
2021/11/22 16:07:37;;;;;;;3.08;1.20;;;;;;;2.45;100.00;99198.66;10471614;28;20037;-63
2021/11/22 16:12:40;;;;;;;2.13;1.25;;;;;;;2.43;100.00;99210.34;10470901;28;20045;-63
2021/11/22 16:17:45;;;;;;;3.00;1.30;;;;;;;2.38;100.00;99220.38;10474797;28;20148;-62
2021/11/22 16:22:48;;;;;;;3.30;1.20;;;;;;;2.29;100.00;99227.97;10467368;28;20100;-63
2021/11/22 16:27:51;;;;;;;3.22;1.40;;;;;;;2.30;100.00;99226.13;10466941;28;20124;-60
2021/11/22 16:32:55;;;;;;;4.65;1.20;;;;;;;2.20;100.00;99228.50;10449608;28;20151;-59
2021/11/22 16:37:58;;;;;;;3.42;1.30;;;;;;;2.14;100.00;99232.38;10461370;28;20095;-57
2021/11/22 16:43:01;;;;;;;1.85;1.30;;;;;;;2.05;100.00;99250.63;10462134;28;20561;-54
2021/11/22 16:48:06;;;;;;;2.05;1.48;;;;;;;2.01;100.00;99247.28;10447133;28;20539;-59
2021/11/22 16:53:09;;;;;;;4.68;1.40;;;;;;;1.95;100.00;99245.84;10446777;28;20072;-63
2021/11/22 16:58:13;;;;;;;2.28;1.58;;;;;;;1.91;100.00;99254.91;10462355;28;20037;-63
2021/11/22 17:03:18;;;;;;;2.50;1.27;;;;;;;1.80;100.00;99252.88;10459243;28;20065;-55
2021/11/22 17:08:22;;;;;;;4.68;3.55;;;;;;;1.75;100.00;99254.91;10440847;28;20704;-60
2021/11/22 17:13:26;;;;;;;2.47;1.30;;;;;;;1.66;100.00;99263.38;10457849;28;20086;-61
2021/11/22 17:18:32;;;;;;;3.03;1.70;;;;;;;1.51;100.00;99273.91;10443958;28;20057;-55
2021/11/22 17:23:35;;;;;;;4.97;1.48;;;;;;;1.43;100.00;99281.44;10466324;28;20867;-69
2021/11/22 17:28:39;;;;;;;3.17;1.40;;;;;;;1.37;100.00;99284.41;10462632;28;20045;-55
2021/11/22 17:33:45;;;;;;;3.67;1.67;;;;;;;1.31;100.00;99292.69;10438233;28;20055;-56
2021/11/22 17:38:48;;;;;;;3.08;1.90;;;;;;;1.28;100.00;99300.81;10454877;28;20135;-58
2021/11/22 17:43:51;;;;;;;2.38;1.70;;;;;;;1.25;100.00;99298.31;10469572;28;20041;-60
2021/11/22 17:48:56;;;;;;;3.03;1.60;;;;;;;1.17;100.00;99302.25;10473984;28;20135;-64
2021/11/22 17:54:00;;;;;;;3.15;1.77;;;;;;;1.09;100.00;99315.06;10473126;28;20789;-61
2021/11/22 17:59:04;;;;;;;2.83;1.90;;;;;;;1.03;100.00;99312.72;10449783;28;20489;-57
2021/11/22 18:04:09;;;;;;;5.60;2.50;;;;;;;0.91;100.00;99317.69;10466745;28;20067;-57
2021/11/22 18:09:12;;;;;;;3.42;2.05;;;;;;;0.83;100.00;99325.19;10465397;28;20087;-62
2021/11/22 18:14:31;;;;;;;4.15;1.92;;;;;;;0.75;100.00;99324.75;10443051;28;20071;-59
2021/11/22 18:20:01;;;;;;;4.78;2.90;;;;;;;0.69;100.00;99335.63;10465514;28;20128;-63
2021/11/22 18:25:08;;;;;;;2.50;2.10;;;;;;;0.65;100.00;99329.63;10461749;28;20041;-63
2021/11/22 18:30:16;;;;;;;5.05;2.00;;;;;;;0.64;100.00;99333.22;10459873;28;20099;-64
2021/11/22 18:35:23;;;;;;;6.90;2.20;;;;;;;0.57;100.00;99353.88;10457765;28;20048;-64
2021/11/22 18:40:27;;;;;;;2.42;1.67;;;;;;;0.53;100.00;99365.56;10459453;28;20127;-65
2021/11/22 18:45:30;;;;;;;5.15;2.13;;;;;;;0.53;100.00;99372.66;10456085;28;20045;-63
2021/11/22 18:50:35;;;;;;;5.43;2.80;;;;;;;0.47;100.00;99372.97;10456885;28;20101;-61
2021/11/22 18:55:40;;;;;;;4.75;2.40;;;;;;;0.40;100.00;99375.06;10457463;28;20060;-65
2021/11/22 19:00:44;;;;;;;4.85;2.20;;;;;;;0.29;100.00;99384.34;10460734;28;20063;-64
2021/11/22 19:06:14;;;;;;;6.95;2.72;;;;;;;0.13;100.00;99384.22;10458048;28;20124;-64
2021/11/22 19:11:17;;;;;;;3.30;2.53;;;;;;;0.06;100.00;99400.50;10463917;28;20048;-68
2021/11/22 19:16:20;;;;;;;6.32;3.30;;;;;;;-0.04;100.00;99397.38;10459982;28;20090;-67
2021/11/22 19:21:25;;;;;;;4.88;2.95;;;;;;;-0.12;100.00;99392.44;10444209;28;20049;-63
2021/11/22 19:26:28;;;;;;;4.63;2.80;;;;;;;-0.18;100.00;99398.88;10477288;28;20043;-67
2021/11/22 19:31:31;;;;;;;10.50;2.90;;;;;;;-0.26;100.00;99401.00;10481837;28;20478;-66
2021/11/22 19:36:37;;;;;;;5.07;3.40;;;;;;;-0.30;100.00;99401.22;10486496;28;20079;-65
2021/11/22 19:41:41;;;;;;;6.10;3.40;;;;;;;-0.38;100.00;99394.47;10454723;28;20060;-67
2021/11/22 19:46:44;;;;;;;6.03;3.58;;;;;;;-0.46;100.00;99404.53;10475774;28;20044;-66
2021/11/22 19:51:49;;;;;;;5.22;3.22;;;;;;;-0.53;100.00;99409.22;10474708;28;20041;-65
2021/11/22 19:56:52;;;;;;;4.75;3.45;;;;;;;-0.59;100.00;99419.22;10471074;28;20084;-64
2021/11/22 20:01:56;;;;;;;5.78;3.30;;;;;;;-0.66;100.00;99419.50;10467914;28;20048;-66
2021/11/22 20:07:00;;;;;;;7.45;5.93;;;;;;;-0.70;100.00;99415.25;10480571;28;20547;-66
2021/11/22 20:12:13;;;;;;;9.43;5.35;;;;;;;-0.72;100.00;99421.56;10474210;28;20078;-65
2021/11/22 20:17:16;;;;;;;5.95;4.13;;;;;;;-0.74;100.00;99424.25;10474382;28;20049;-66
2021/11/22 20:22:40;;;;;;;8.07;4.72;;;;;;;-0.76;100.00;99430.53;10461340;28;20056;-64
2021/11/22 20:27:44;;;;;;;8.88;5.22;;;;;;;-0.81;100.00;99434.22;10478468;28;20131;-64
2021/11/22 20:32:47;;;;;;;7.00;4.65;;;;;;;-0.83;100.00;99429.94;10513052;28;20059;-65
2021/11/22 20:37:52;;;;;;;7.88;5.00;;;;;;;-0.87;100.00;99433.63;10510501;28;20039;-66
2021/11/22 20:42:55;;;;;;;6.90;4.50;;;;;;;-0.90;100.00;99439.91;10492654;28;20093;-63
2021/11/22 20:48:00;;;;;;;6.13;4.22;;;;;;;-0.93;100.00;99438.25;10472445;28;20036;-65
2021/11/22 20:53:04;;;;;;;6.25;4.30;;;;;;;-0.96;100.00;99446.31;10478330;28;20055;-62
2021/11/22 20:58:11;;;;;;;7.55;4.35;;;;;;;-0.98;100.00;99437.56;10457135;28;20095;-64
2021/11/22 21:03:14;;;;;;;8.63;4.82;;;;;;;-1.00;100.00;99439.41;10487442;28;20473;-64
2021/11/22 21:08:18;;;;;;;10.85;4.90;;;;;;;-1.02;100.00;99443.06;10471311;28;20419;-67
2021/11/22 21:13:22;;;;;;;8.90;5.32;;;;;;;-1.03;100.00;99446.63;10460819;28;20076;-65
2021/11/22 21:18:27;;;;;;;11.95;5.18;;;;;;;-1.04;100.00;99448.41;10478133;28;20080;-65
2021/11/22 21:23:32;;;;;;;9.43;5.38;;;;;;;-1.06;100.00;99442.31;10453387;28;20098;-66
2021/11/22 21:28:35;;;;;;;8.35;5.07;;;;;;;-1.07;100.00;99445.03;10468227;28;20123;-65
2021/11/22 21:33:38;;;;;;;10.88;6.65;;;;;;;-1.08;100.00;99457.38;10467252;28;20094;-67
2021/11/22 21:45:37;;;;;;;10.02;5.32;;;;;;;-1.12;100.00;99471.69;10466761;28;20033;-62
2021/11/22 21:50:40;;;;;;;7.75;5.00;;;;;;;-1.17;100.00;99470.97;10437909;28;20052;-64
2021/11/22 21:55:43;;;;;;;7.00;4.60;;;;;;;-1.20;100.00;99474.63;10461025;28;20047;-63
2021/11/22 22:00:48;;;;;;;7.57;4.72;;;;;;;-1.23;100.00;99484.47;10462258;28;20036;-65
2021/11/22 22:05:51;;;;;;;7.43;5.25;;;;;;;-1.26;100.00;99491.59;10459722;28;20032;-62
2021/11/22 22:10:55;;;;;;;11.50;6.75;;;;;;;-1.28;100.00;99495.19;10461446;28;20049;-63
2021/11/22 22:15:59;;;;;;;10.77;6.75;;;;;;;-1.30;100.00;99500.56;10463817;28;20481;-63
2021/11/22 22:21:04;;;;;;;8.82;6.07;;;;;;;-1.33;100.00;99497.16;10461819;28;20048;-62
2021/11/22 22:26:07;;;;;;;8.63;6.03;;;;;;;-1.36;100.00;99495.50;10458385;28;20513;-63
2021/11/22 22:31:12;;;;;;;8.52;5.70;;;;;;;-1.40;100.00;99501.81;10454873;28;20047;-62
2021/11/22 22:36:18;;;;;;;10.75;6.68;;;;;;;-1.45;100.00;99495.84;10455022;28;20055;-63
2021/11/22 22:41:21;;;;;;;10.98;7.53;;;;;;;-1.49;100.00;99504.84;10451196;28;20091;-59
2021/11/22 22:46:25;;;;;;;16.75;10.88;;;;;;;-1.55;100.00;99504.13;10458772;28;20401;-62
2021/11/22 22:51:29;;;;;;;17.00;12.48;;;;;;;-1.57;100.00;99508.59;10452919;28;20052;-62
2021/11/22 22:56:32;;;;;;;25.92;17.63;;;;;;;-1.59;100.00;99509.59;10457734;28;20404;-63
2021/11/22 23:01:37;;;;;;;16.00;12.35;;;;;;;-1.64;100.00;99512.41;10441828;28;20106;-61
2021/11/22 23:06:41;;;;;;;13.48;10.48;;;;;;;-1.68;100.00;99502.88;10451364;28;20069;-62
2021/11/22 23:11:45;;;;;;;13.43;9.27;;;;;;;-1.71;100.00;99506.50;10459335;28;20052;-63
2021/11/22 23:16:49;;;;;;;11.63;8.15;;;;;;;-1.73;100.00;99515.41;10475459;28;20045;-64
2021/11/22 23:21:53;;;;;;;14.55;9.70;;;;;;;-1.79;100.00;99505.03;10477456;28;20050;-59
2021/11/22 23:26:56;;;;;;;13.45;8.63;;;;;;;-1.81;100.00;99512.16;10449404;28;20053;-59
2021/11/22 23:32:00;;;;;;;9.82;7.32;;;;;;;-1.84;100.00;99515.78;10469560;28;20502;-59
2021/11/22 23:37:03;;;;;;;16.27;8.70;;;;;;;-1.89;100.00;99520.38;10446484;28;20040;-65